Time,TemperatureF,DewpointF,PressureIn,WindDirection,WindDirectionDegrees,WindSpeedMPH,WindSpeedGustMPH,Humidity,HourlyPrecipIn,Conditions,Clouds,dailyrainin,SoftwareType,DateUTC
2013-08-15 07:42:00,58.0,54.5,29.82,North,0,0.0,0.0,88,0.00,,---,0.00,VWS V14.00,2013-08-15 12:42:00,
2013-08-15 07:43:00,57.5,54.0,29.85,NE,44,0.0,0.0,88,0.00,,---,0.00,VWS V14.00,2013-08-15 12:43:00,
2013-08-15 07:47:00,58.0,54.5,29.85,NE,44,0.0,0.0,88,0.00,,---,0.00,VWS V14.00,2013-08-15 12:47:00,
2013-08-15 07:48:00,58.0,54.5,29.85,NE,44,0.0,0.0,88,0.00,,---,0.00,VWS V14.00,2013-08-15 12:48:00,
2013-08-15 07:53:00,58.6,55.4,29.85,NE,44,0.0,0.0,89,0.00,,---,0.00,VWS V14.00,2013-08-15 12:53:00,
2013-08-15 07:58:00,59.2,56.0,29.85,NE,44,0.0,0.0,89,0.00,,---,0.00,VWS V14.00,2013-08-15 12:58:00,
2013-08-15 08:03:00,60.1,56.8,29.85,NE,44,0.0,0.0,89,0.00,,---,0.00,VWS V14.00,2013-08-15 13:03:00,
2013-08-15 08:08:00,60.9,57.6,29.85,NE,44,0.0,0.0,89,0.00,,---,0.00,VWS V14.00,2013-08-15 13:08:00,
2013-08-15 08:13:00,61.5,57.6,29.85,NE,44,0.0,0.0,87,0.00,,---,0.00,VWS V14.00,2013-08-15 13:13:00,
2013-08-15 08:18:00,61.6,56.7,29.85,NE,44,0.0,0.0,84,0.00,,---,0.00,VWS V14.00,2013-08-15 13:18:00,
2013-08-15 08:23:00,62.1,56.5,29.85,NE,44,0.0,0.0,82,0.00,,---,0.00,VWS V14.00,2013-08-15 13:23:00,
2013-08-15 08:24:00,62.1,56.5,29.85,NE,44,0.0,0.0,82,0.00,,---,0.00,VWS V14.00,2013-08-15 13:24:00,
2013-08-15 08:28:00,62.3,56.1,29.86,NE,44,0.0,0.0,80,0.00,,---,0.00,VWS V14.00,2013-08-15 13:28:00,
2013-08-15 08:29:00,62.4,56.2,29.86,NE,44,0.0,0.0,80,0.00,,---,0.00,VWS V14.00,2013-08-15 13:29:00,
2013-08-15 08:33:00,62.6,56.7,29.86,NE,44,0.0,0.0,81,0.00,,---,0.00,VWS V14.00,2013-08-15 13:33:00,
2013-08-15 08:34:00,62.6,56.7,29.86,NE,44,0.0,0.0,81,0.00,,---,0.00,VWS V14.00,2013-08-15 13:34:00,
2013-08-15 08:38:00,63.1,57.2,29.86,NE,44,0.0,0.0,81,0.00,,---,0.00,VWS V14.00,2013-08-15 13:38:00,
2013-08-15 08:39:00,63.1,57.2,29.86,NE,44,0.0,0.0,81,0.00,,---,0.00,VWS V14.00,2013-08-15 13:39:00,
2013-08-15 08:43:00,63.5,56.9,29.85,NE,44,0.0,0.0,79,0.00,,---,0.00,VWS V14.00,2013-08-15 13:43:00,
2013-08-15 08:44:00,63.5,56.9,29.85,NE,44,0.0,0.0,79,0.00,,---,0.00,VWS V14.00,2013-08-15 13:44:00,
2013-08-15 08:48:00,64.2,56.8,29.85,NE,44,0.0,0.0,77,0.00,,---,0.00,VWS V14.00,2013-08-15 13:48:00,
2013-08-15 08:49:00,64.3,57.0,29.85,NE,44,0.0,0.0,77,0.00,,---,0.00,VWS V14.00,2013-08-15 13:49:00,
2013-08-15 08:54:00,65.3,57.5,29.85,NE,44,0.0,0.0,76,0.00,,---,0.00,VWS V14.00,2013-08-15 13:54:00,
2013-08-15 08:55:00,65.8,58.4,29.85,NE,44,0.0,0.0,77,0.00,,---,0.00,VWS V14.00,2013-08-15 13:55:00,
2013-08-15 08:59:00,66.8,58.6,29.84,NE,44,0.0,0.0,75,0.00,,---,0.00,VWS V14.00,2013-08-15 13:59:00,
2013-08-15 09:00:00,66.8,58.6,29.84,NE,44,0.0,0.0,75,0.00,,---,0.00,VWS V14.00,2013-08-15 14:00:00,
2013-08-15 09:04:00,67.8,58.5,29.84,NE,44,0.0,0.0,72,0.00,,---,0.00,VWS V14.00,2013-08-15 14:04:00,
2013-08-15 09:05:00,67.8,58.5,29.84,NE,44,0.0,0.0,72,0.00,,---,0.00,VWS V14.00,2013-08-15 14:05:00,
2013-08-15 09:09:00,69.3,59.1,29.84,NE,44,0.0,0.0,70,0.00,,---,0.00,VWS V14.00,2013-08-15 14:09:00,
2013-08-15 09:10:00,69.3,59.1,29.84,NE,44,0.0,0.0,70,0.00,,---,0.00,VWS V14.00,2013-08-15 14:10:00,
2013-08-15 09:14:00,69.9,58.5,29.84,NE,44,0.0,0.0,67,0.00,,---,0.00,VWS V14.00,2013-08-15 14:14:00,
2013-08-15 09:15:00,69.9,58.5,29.84,NE,44,0.0,0.0,67,0.00,,---,0.00,VWS V14.00,2013-08-15 14:15:00,
2013-08-15 09:16:00,70.1,58.2,29.84,NE,44,0.0,0.0,66,0.00,,---,0.00,VWS V14.00,2013-08-15 14:16:00,
2013-08-15 09:20:00,71.1,59.2,29.84,NE,44,0.0,0.0,66,0.00,,---,0.00,VWS V14.00,2013-08-15 14:20:00,
2013-08-15 09:21:00,71.6,60.1,29.84,NE,44,0.0,0.0,67,0.00,,---,0.00,VWS V14.00,2013-08-15 14:21:00,
2013-08-15 09:25:00,72.3,59.9,29.84,NE,44,0.0,0.0,65,0.00,,---,0.00,VWS V14.00,2013-08-15 14:25:00,
2013-08-15 09:26:00,72.7,59.4,29.84,NE,44,0.0,0.0,63,0.00,,---,0.00,VWS V14.00,2013-08-15 14:26:00,
2013-08-15 09:30:00,73.3,59.0,29.83,NE,44,0.0,0.0,61,0.00,,---,0.00,VWS V14.00,2013-08-15 14:30:00,
2013-08-15 09:31:00,73.3,59.0,29.83,NE,44,0.0,0.0,61,0.00,,---,0.00,VWS V14.00,2013-08-15 14:31:00,
2013-08-15 09:35:00,74.0,58.8,29.83,NE,44,0.0,0.0,59,0.00,,---,0.00,VWS V14.00,2013-08-15 14:35:00,
2013-08-15 09:36:00,74.4,59.6,29.83,NE,44,0.0,0.0,60,0.00,,---,0.00,VWS V14.00,2013-08-15 14:36:00,
2013-08-15 09:40:00,75.4,58.6,29.83,NE,44,0.0,0.0,56,0.00,,---,0.00,VWS V14.00,2013-08-15 14:40:00,
2013-08-15 09:41:00,75.6,58.8,29.83,NE,44,0.0,0.0,56,0.00,,---,0.00,VWS V14.00,2013-08-15 14:41:00,
2013-08-15 09:42:00,75.6,58.8,29.83,NE,44,0.0,0.0,56,0.00,,---,0.00,VWS V14.00,2013-08-15 14:42:00,
2013-08-15 09:45:00,76.0,58.7,29.81,NE,44,0.0,0.0,55,0.00,,---,0.00,VWS V14.00,2013-08-15 14:45:00,
2013-08-15 09:46:00,76.1,58.8,29.81,NE,44,0.0,0.0,55,0.00,,---,0.00,VWS V14.00,2013-08-15 14:46:00,
2013-08-15 09:49:00,76.3,56.9,29.81,NE,44,0.0,0.0,51,0.00,,---,0.00,VWS V14.00,2013-08-15 14:49:00,
2013-08-15 09:50:00,76.3,57.4,29.81,NE,44,0.0,0.0,52,0.00,,---,0.00,VWS V14.00,2013-08-15 14:50:00,
2013-08-15 09:51:00,76.3,57.4,29.81,NE,44,0.0,0.0,52,0.00,,---,0.00,VWS V14.00,2013-08-15 14:51:00,
2013-08-15 09:53:00,76.3,57.4,29.81,NE,44,0.0,0.0,52,0.00,,---,0.00,VWS V14.00,2013-08-15 14:53:00,
2013-08-15 09:54:00,76.5,57.6,29.81,NE,44,0.0,0.0,52,0.00,,---,0.00,VWS V14.00,2013-08-15 14:54:00,
2013-08-15 09:55:00,76.8,57.9,29.81,NE,44,0.0,0.0,52,0.00,,---,0.00,VWS V14.00,2013-08-15 14:55:00,
2013-08-15 09:56:00,76.8,57.9,29.81,NE,44,0.0,0.0,52,0.00,,---,0.00,VWS V14.00,2013-08-15 14:56:00,
2013-08-15 09:58:00,76.8,57.3,29.81,NE,44,0.0,0.0,51,0.00,,---,0.00,VWS V14.00,2013-08-15 14:58:00,
2013-08-15 10:00:00,77.2,58.2,29.81,NE,44,0.0,0.0,52,0.00,,---,0.00,VWS V14.00,2013-08-15 15:00:00,
2013-08-15 10:01:00,77.4,58.4,29.81,NE,44,0.0,0.0,52,0.00,,---,0.00,VWS V14.00,2013-08-15 15:01:00,
2013-08-15 10:03:00,77.7,58.2,29.81,NE,44,0.0,0.0,51,0.00,,---,0.00,VWS V14.00,2013-08-15 15:03:00,
2013-08-15 10:05:00,77.9,57.8,29.81,NE,44,0.0,0.0,50,0.00,,---,0.00,VWS V14.00,2013-08-15 15:05:00,
2013-08-15 10:06:00,77.9,57.8,29.81,NE,44,0.0,0.0,50,0.00,,---,0.00,VWS V14.00,2013-08-15 15:06:00,
2013-08-15 10:07:00,77.9,57.8,29.81,NE,44,0.0,0.0,50,0.00,,---,0.00,VWS V14.00,2013-08-15 15:07:00,
2013-08-15 10:09:00,78.3,58.7,29.81,NE,44,0.0,0.0,51,0.00,,---,0.00,VWS V14.00,2013-08-15 15:09:00,
2013-08-15 10:10:00,78.3,57.6,29.81,NE,44,0.0,0.0,49,0.00,,---,0.00,VWS V14.00,2013-08-15 15:10:00,
2013-08-15 10:11:00,78.3,57.6,29.81,NE,44,0.0,0.0,49,0.00,,---,0.00,VWS V14.00,2013-08-15 15:11:00,
2013-08-15 10:12:00,78.3,57.6,29.81,NE,44,0.0,0.0,49,0.00,,---,0.00,VWS V14.00,2013-08-15 15:12:00,
2013-08-15 10:14:00,78.1,56.8,29.82,NE,44,0.0,0.0,48,0.00,,---,0.00,VWS V14.00,2013-08-15 15:14:00,
2013-08-15 10:16:00,78.1,56.8,29.82,NE,44,0.0,0.0,48,0.00,,---,0.00,VWS V14.00,2013-08-15 15:16:00,
2013-08-15 10:17:00,78.3,57.6,29.82,NE,44,0.0,0.0,49,0.00,,---,0.00,VWS V14.00,2013-08-15 15:17:00,
2013-08-15 10:19:00,78.6,57.3,29.82,NE,44,0.0,0.0,48,0.00,,---,0.00,VWS V14.00,2013-08-15 15:19:00,
2013-08-15 10:21:00,79.2,57.8,29.82,NE,44,0.0,0.0,48,0.00,,---,0.00,VWS V14.00,2013-08-15 15:21:00,
2013-08-15 10:22:00,79.2,56.7,29.82,NE,44,0.0,0.0,46,0.00,,---,0.00,VWS V14.00,2013-08-15 15:22:00,
2013-08-15 10:25:00,79.2,56.7,29.82,NE,44,0.0,0.0,46,0.00,,---,0.00,VWS V14.00,2013-08-15 15:25:00,
2013-08-15 10:26:00,79.2,57.2,29.82,NE,44,0.0,0.0,47,0.00,,---,0.00,VWS V14.00,2013-08-15 15:26:00,
2013-08-15 10:27:00,79.4,56.8,29.82,NE,44,0.0,0.0,46,0.00,,---,0.00,VWS V14.00,2013-08-15 15:27:00,
2013-08-15 10:30:00,79.4,56.8,29.81,NE,44,0.0,0.0,46,0.00,,---,0.00,VWS V14.00,2013-08-15 15:30:00,
2013-08-15 10:31:00,79.4,56.8,29.81,NE,44,0.0,0.0,46,0.00,,---,0.00,VWS V14.00,2013-08-15 15:31:00,
2013-08-15 10:32:00,79.6,57.0,29.81,NE,44,0.0,0.0,46,0.00,,---,0.00,VWS V14.00,2013-08-15 15:32:00,
2013-08-15 10:35:00,79.8,56.6,29.81,NE,44,0.0,0.0,45,0.00,,---,0.00,VWS V14.00,2013-08-15 15:35:00,
2013-08-15 10:36:00,79.9,56.1,29.81,NE,44,0.0,0.0,44,0.00,,---,0.00,VWS V14.00,2013-08-15 15:36:00,
2013-08-15 10:37:00,79.9,56.1,29.81,NE,44,0.0,0.0,44,0.00,,---,0.00,VWS V14.00,2013-08-15 15:37:00,
2013-08-15 10:38:00,80.1,56.2,29.81,NE,44,0.0,0.0,44,0.00,,---,0.00,VWS V14.00,2013-08-15 15:38:00,
2013-08-15 10:40:00,80.3,56.4,29.81,NE,44,0.0,0.0,44,0.00,,---,0.00,VWS V14.00,2013-08-15 15:40:00,
2013-08-15 10:41:00,80.3,57.7,29.81,NE,44,0.0,0.0,46,0.00,,---,0.00,VWS V14.00,2013-08-15 15:41:00,
2013-08-15 10:42:00,80.5,57.2,29.81,NE,44,0.0,0.0,45,0.00,,---,0.00,VWS V14.00,2013-08-15 15:42:00,
2013-08-15 10:43:00,80.5,57.2,29.80,NE,44,0.0,0.0,45,0.00,,---,0.00,VWS V14.00,2013-08-15 15:43:00,
2013-08-15 10:45:00,80.5,56.6,29.80,NE,44,0.0,0.0,44,0.00,,---,0.00,VWS V14.00,2013-08-15 15:45:00,
2013-08-15 10:46:00,80.5,56.6,29.80,NE,44,0.0,0.0,44,0.00,,---,0.00,VWS V14.00,2013-08-15 15:46:00,
2013-08-15 10:47:00,80.7,56.2,29.80,NE,44,0.0,0.0,43,0.00,,---,0.00,VWS V14.00,2013-08-15 15:47:00,
2013-08-15 10:49:00,80.9,56.3,29.80,NE,44,0.0,0.0,43,0.00,,---,0.00,VWS V14.00,2013-08-15 15:49:00,
2013-08-15 10:50:00,80.9,55.7,29.80,NE,44,0.0,0.0,42,0.00,,---,0.00,VWS V14.00,2013-08-15 15:50:00,
2013-08-15 10:52:00,80.9,56.3,29.80,North,6,0.0,0.0,43,0.00,,---,0.00,VWS V14.00,2013-08-15 15:52:00,
2013-08-15 10:53:00,80.9,56.3,29.80,North,6,0.0,0.0,43,0.00,,---,0.00,VWS V14.00,2013-08-15 15:53:00,
2013-08-15 10:54:00,80.7,56.2,29.80,North,359,0.0,0.0,43,0.00,,---,0.00,VWS V14.00,2013-08-15 15:54:00,
2013-08-15 10:56:00,80.9,56.3,29.80,North,356,0.0,0.0,43,0.00,,---,0.00,VWS V14.00,2013-08-15 15:56:00,
2013-08-15 10:57:00,80.7,55.5,29.80,North,356,0.0,0.0,42,0.00,,---,0.00,VWS V14.00,2013-08-15 15:57:00,
2013-08-15 10:58:00,80.7,55.5,29.80,North,354,0.0,0.0,42,0.00,,---,0.00,VWS V14.00,2013-08-15 15:58:00,
2013-08-15 10:59:00,80.7,55.5,29.81,North,356,0.0,0.0,42,0.00,,---,0.00,VWS V14.00,2013-08-15 15:59:00,
2013-08-15 11:01:00,80.9,55.7,29.81,North,356,0.0,0.0,42,0.00,,---,0.00,VWS V14.00,2013-08-15 16:01:00,
2013-08-15 11:03:00,80.9,55.0,29.81,NNE,17,0.0,0.0,41,0.00,,---,0.00,VWS V14.00,2013-08-15 16:03:00,
2013-08-15 11:04:00,80.9,55.7,29.81,NNE,18,0.0,0.0,42,0.00,,---,0.00,VWS V14.00,2013-08-15 16:04:00,
2013-08-15 11:07:00,81.2,55.3,29.81,NE,37,0.0,0.0,41,0.00,,---,0.00,VWS V14.00,2013-08-15 16:07:00,
2013-08-15 11:08:00,81.4,55.5,29.81,NE,44,0.0,0.0,41,0.00,,---,0.00,VWS V14.00,2013-08-15 16:08:00,
2013-08-15 11:09:00,81.4,55.5,29.81,East,85,0.0,0.0,41,0.00,,---,0.00,VWS V14.00,2013-08-15 16:09:00,
2013-08-15 11:12:00,82.2,55.5,29.81,ENE,62,0.0,0.0,40,0.00,,---,0.00,VWS V14.00,2013-08-15 16:12:00,
2013-08-15 11:13:00,82.4,55.7,29.81,ENE,62,0.0,0.0,40,0.00,,---,0.00,VWS V14.00,2013-08-15 16:13:00,
2013-08-15 11:14:00,82.6,55.9,29.81,ENE,61,0.0,0.0,40,0.00,,---,0.00,VWS V14.00,2013-08-15 16:14:00,
2013-08-15 11:18:00,82.4,54.3,29.81,ENE,62,0.0,0.0,38,0.00,,---,0.00,VWS V14.00,2013-08-15 16:18:00,
2013-08-15 11:19:00,82.6,54.5,29.81,ENE,59,0.0,0.0,38,0.00,,---,0.00,VWS V14.00,2013-08-15 16:19:00,
2013-08-15 11:20:00,82.4,53.5,29.81,ENE,59,0.0,0.0,37,0.00,,---,0.00,VWS V14.00,2013-08-15 16:20:00,
2013-08-15 11:24:00,82.6,54.5,29.81,NE,56,0.0,0.0,38,0.00,,---,0.00,VWS V14.00,2013-08-15 16:24:00,
2013-08-15 11:25:00,82.4,54.3,29.81,NE,56,0.0,0.0,38,0.00,,---,0.00,VWS V14.00,2013-08-15 16:25:00,
2013-08-15 11:26:00,82.2,53.4,29.81,NNE,21,6.0,11.0,37,0.00,,---,0.00,VWS V14.00,2013-08-15 16:26:00,
2013-08-15 11:29:00,82.6,55.2,29.81,NNE,18,4.0,5.0,39,0.00,,---,0.00,VWS V14.00,2013-08-15 16:29:00,
2013-08-15 11:30:00,82.4,55.0,29.81,NNE,18,4.0,6.0,39,0.00,,---,0.00,VWS V14.00,2013-08-15 16:30:00,
2013-08-15 11:31:00,82.4,55.7,29.81,NNE,18,2.0,6.0,40,0.00,,---,0.00,VWS V14.00,2013-08-15 16:31:00,
2013-08-15 11:35:00,82.8,55.3,29.81,NNW,330,0.0,6.0,39,0.00,,---,0.00,VWS V14.00,2013-08-15 16:35:00,
2013-08-15 11:36:00,82.8,53.9,29.81,NNW,339,0.0,6.0,37,0.00,,---,0.00,VWS V14.00,2013-08-15 16:36:00,
2013-08-15 11:40:00,83.4,55.2,29.81,North,356,0.0,6.0,38,0.00,,---,0.00,VWS V14.00,2013-08-15 16:40:00,
2013-08-15 11:41:00,83.4,52.9,29.81,North,0,0.0,6.0,35,0.00,,---,0.00,VWS V14.00,2013-08-15 16:41:00,
2013-08-15 11:45:00,84.0,53.4,29.80,North,0,0.0,6.0,35,0.00,,---,0.00,VWS V14.00,2013-08-15 16:45:00,
2013-08-15 11:46:00,84.0,52.6,29.80,North,0,0.0,6.0,34,0.00,,---,0.00,VWS V14.00,2013-08-15 16:46:00,
2013-08-15 11:50:00,84.0,51.8,29.80,ENE,76,0.0,6.0,33,0.00,,---,0.00,VWS V14.00,2013-08-15 16:50:00,
2013-08-15 11:51:00,83.8,52.5,29.80,ENE,76,0.0,6.0,34,0.00,,---,0.00,VWS V14.00,2013-08-15 16:51:00,
2013-08-15 11:55:00,83.8,50.8,29.80,East,89,0.0,6.0,32,0.00,,---,0.00,VWS V14.00,2013-08-15 16:55:00,
2013-08-15 11:56:00,83.8,51.7,29.80,East,89,0.0,6.0,33,0.00,,---,0.00,VWS V14.00,2013-08-15 16:56:00,
2013-08-15 12:00:00,84.0,51.8,29.80,SSW,206,0.0,0.0,33,0.00,,---,0.00,VWS V14.00,2013-08-15 17:00:00,
2013-08-15 12:01:00,84.1,52.7,29.80,SSW,206,0.0,0.0,34,0.00,,---,0.00,VWS V14.00,2013-08-15 17:01:00,
2013-08-15 12:06:00,84.5,50.6,29.80,East,80,0.0,2.0,31,0.00,,---,0.00,VWS V14.00,2013-08-15 17:06:00,
2013-08-15 12:07:00,85.1,52.0,29.80,East,80,1.0,2.0,32,0.00,,---,0.00,VWS V14.00,2013-08-15 17:07:00,
2013-08-15 12:11:00,84.9,51.8,29.80,NE,52,0.0,2.0,32,0.00,,---,0.00,VWS V14.00,2013-08-15 17:11:00,
2013-08-15 12:12:00,84.9,51.8,29.80,NE,54,0.0,2.0,32,0.00,,---,0.00,VWS V14.00,2013-08-15 17:12:00,
2013-08-15 12:16:00,85.3,51.3,29.79,ENE,59,0.0,2.0,31,0.00,,---,0.00,VWS V14.00,2013-08-15 17:16:00,
2013-08-15 12:17:00,85.3,51.3,29.79,ENE,61,0.0,2.0,31,0.00,,---,0.00,VWS V14.00,2013-08-15 17:17:00,
2013-08-15 12:22:00,85.3,52.1,29.79,ENE,78,0.0,2.0,32,0.00,,---,0.00,VWS V14.00,2013-08-15 17:22:00,
2013-08-15 12:23:00,85.9,52.7,29.79,NE,54,0.0,2.0,32,0.00,,---,0.00,VWS V14.00,2013-08-15 17:23:00,
2013-08-15 12:25:00,85.5,50.6,29.79,ENE,62,0.0,2.0,30,0.00,,---,0.00,VWS V14.00,2013-08-15 17:25:00,
2013-08-15 12:27:00,85.1,52.0,29.79,ENE,59,0.0,2.0,32,0.00,,---,0.00,VWS V14.00,2013-08-15 17:27:00,
2013-08-15 12:28:00,85.3,51.3,29.79,NE,49,0.0,2.0,31,0.00,,---,0.00,VWS V14.00,2013-08-15 17:28:00,
2013-08-15 12:29:00,85.3,51.3,29.79,NNE,27,0.0,2.0,31,0.00,,---,0.00,VWS V14.00,2013-08-15 17:29:00,
2013-08-15 12:30:00,85.3,51.3,29.79,NNE,27,0.0,0.0,31,0.00,,---,0.00,VWS V14.00,2013-08-15 17:30:00,
2013-08-15 12:33:00,85.3,53.0,29.79,East,95,1.0,7.0,33,0.00,,---,0.00,VWS V14.00,2013-08-15 17:33:00,
2013-08-15 12:34:00,85.5,54.0,29.79,ENE,76,0.0,7.0,34,0.00,,---,0.00,VWS V14.00,2013-08-15 17:34:00,
2013-08-15 12:35:00,85.7,54.1,29.79,East,79,0.0,7.0,34,0.00,,---,0.00,VWS V14.00,2013-08-15 17:35:00,
2013-08-15 12:36:00,85.7,52.5,29.79,East,83,12.0,12.0,32,0.00,,---,0.00,VWS V14.00,2013-08-15 17:36:00,
2013-08-15 12:38:00,85.3,52.1,29.79,NE,37,0.0,12.0,32,0.00,,---,0.00,VWS V14.00,2013-08-15 17:38:00,
2013-08-15 12:39:00,85.3,52.1,29.79,NE,37,0.0,12.0,32,0.00,,---,0.00,VWS V14.00,2013-08-15 17:39:00,
2013-08-15 12:40:00,84.9,50.9,29.79,North,354,0.0,12.0,31,0.00,,---,0.00,VWS V14.00,2013-08-15 17:40:00,
2013-08-15 12:44:00,84.0,52.6,29.78,North,357,4.0,12.0,34,0.00,,---,0.00,VWS V14.00,2013-08-15 17:44:00,
2013-08-15 12:46:00,83.8,52.5,29.78,NE,54,0.0,12.0,34,0.00,,---,0.00,VWS V14.00,2013-08-15 17:46:00,
2013-08-15 12:49:00,83.8,54.0,29.78,ENE,59,0.0,12.0,36,0.00,,---,0.00,VWS V14.00,2013-08-15 17:49:00,
2013-08-15 12:50:00,83.6,53.8,29.78,ENE,59,0.0,12.0,36,0.00,,---,0.00,VWS V14.00,2013-08-15 17:50:00,
2013-08-15 12:51:00,83.8,54.8,29.78,ENE,59,0.0,12.0,37,0.00,,---,0.00,VWS V14.00,2013-08-15 17:51:00,
2013-08-15 12:53:00,84.3,53.7,29.78,ENE,71,0.0,12.0,35,0.00,,---,0.00,VWS V14.00,2013-08-15 17:53:00,
2013-08-15 12:54:00,84.5,54.6,29.78,ENE,71,0.0,12.0,36,0.00,,---,0.00,VWS V14.00,2013-08-15 17:54:00,
2013-08-15 12:55:00,84.7,54.8,29.78,ENE,62,0.0,12.0,36,0.00,,---,0.00,VWS V14.00,2013-08-15 17:55:00,
2013-08-15 12:57:00,85.1,52.0,29.78,ENE,62,0.0,12.0,32,0.00,,---,0.00,VWS V14.00,2013-08-15 17:57:00,
2013-08-15 12:58:00,85.1,52.8,29.78,NE,44,4.0,12.0,33,0.00,,---,0.00,VWS V14.00,2013-08-15 17:58:00,
2013-08-15 13:00:00,85.5,54.0,29.78,ESE,114,0.0,7.0,34,0.00,,---,0.00,VWS V14.00,2013-08-15 18:00:00,
2013-08-15 13:01:00,86.1,53.7,29.78,NNE,31,6.0,7.0,33,0.00,,---,0.00,VWS V14.00,2013-08-15 18:01:00,
2013-08-15 13:02:00,86.1,53.7,29.78,NNE,30,0.0,7.0,33,0.00,,---,0.00,VWS V14.00,2013-08-15 18:02:00,
2013-08-15 13:03:00,86.3,53.0,29.78,NNE,32,0.0,7.0,32,0.00,,---,0.00,VWS V14.00,2013-08-15 18:03:00,
2013-08-15 13:05:00,86.1,52.0,29.78,ENE,62,4.0,8.0,31,0.00,,---,0.00,VWS V14.00,2013-08-15 18:05:00,
2013-08-15 13:06:00,86.1,52.0,29.78,NE,48,2.0,8.0,31,0.00,,---,0.00,VWS V14.00,2013-08-15 18:06:00,
2013-08-15 13:07:00,86.3,51.2,29.78,ENE,69,6.0,8.0,30,0.00,,---,0.00,VWS V14.00,2013-08-15 18:07:00,
2013-08-15 13:08:00,85.9,50.9,29.78,ENE,69,0.0,8.0,30,0.00,,---,0.00,VWS V14.00,2013-08-15 18:08:00,
2013-08-15 13:09:00,85.9,50.9,29.78,ENE,69,0.0,8.0,30,0.00,,---,0.00,VWS V14.00,2013-08-15 18:09:00,
2013-08-15 13:11:00,85.9,50.0,29.78,NE,45,5.0,8.0,29,0.00,,---,0.00,VWS V14.00,2013-08-15 18:11:00,
2013-08-15 13:12:00,86.1,52.8,29.78,NE,48,0.0,8.0,32,0.00,,---,0.00,VWS V14.00,2013-08-15 18:12:00,
2013-08-15 13:13:00,86.1,50.2,29.78,East,96,0.0,8.0,29,0.00,,---,0.00,VWS V14.00,2013-08-15 18:13:00,
2013-08-15 13:14:00,86.3,50.3,29.78,East,96,0.0,8.0,29,0.00,,---,0.00,VWS V14.00,2013-08-15 18:14:00,
2013-08-15 13:16:00,87.0,50.0,29.78,East,93,7.0,10.0,28,0.00,,---,0.00,VWS V14.00,2013-08-15 18:16:00,
2013-08-15 13:17:00,86.5,49.6,29.78,ESE,104,0.0,10.0,28,0.00,,---,0.00,VWS V14.00,2013-08-15 18:17:00,
2013-08-15 13:19:00,86.5,49.6,29.78,East,83,0.0,10.0,28,0.00,,---,0.00,VWS V14.00,2013-08-15 18:19:00,
2013-08-15 13:20:00,86.5,49.6,29.78,East,79,0.0,10.0,28,0.00,,---,0.00,VWS V14.00,2013-08-15 18:20:00,
2013-08-15 13:21:00,86.1,49.2,29.78,ENE,76,8.0,10.0,28,0.00,,---,0.00,VWS V14.00,2013-08-15 18:21:00,
2013-08-15 13:23:00,85.7,51.6,29.78,ENE,73,0.0,10.0,31,0.00,,---,0.00,VWS V14.00,2013-08-15 18:23:00,
2013-08-15 13:25:00,86.3,53.0,29.78,North,356,0.0,10.0,32,0.00,,---,0.00,VWS V14.00,2013-08-15 18:25:00,
2013-08-15 13:26:00,86.1,51.1,29.78,North,0,0.0,10.0,30,0.00,,---,0.00,VWS V14.00,2013-08-15 18:26:00,
2013-08-15 13:27:00,86.1,51.1,29.78,North,0,0.0,10.0,30,0.00,,---,0.00,VWS V14.00,2013-08-15 18:27:00,
2013-08-15 13:28:00,86.1,51.1,29.78,NE,37,0.0,10.0,30,0.00,,---,0.00,VWS V14.00,2013-08-15 18:28:00,
2013-08-15 13:29:00,86.5,51.4,29.76,NE,37,0.0,10.0,30,0.00,,---,0.00,VWS V14.00,2013-08-15 18:29:00,
2013-08-15 13:31:00,87.2,49.2,29.76,ESE,117,1.0,6.0,27,0.00,,---,0.00,VWS V14.00,2013-08-15 18:31:00,
2013-08-15 13:33:00,87.4,50.3,29.76,East,90,0.0,6.0,28,0.00,,---,0.00,VWS V14.00,2013-08-15 18:33:00,
2013-08-15 13:34:00,87.6,50.5,29.76,SE,136,0.0,6.0,28,0.00,,---,0.00,VWS V14.00,2013-08-15 18:34:00,
2013-08-15 13:36:00,88.6,53.2,29.76,East,99,1.0,8.0,30,0.00,,---,0.00,VWS V14.00,2013-08-15 18:36:00,
2013-08-15 13:37:00,88.8,53.4,29.76,ESE,102,1.0,8.0,30,0.00,,---,0.00,VWS V14.00,2013-08-15 18:37:00,
2013-08-15 13:38:00,88.2,50.0,29.76,ESE,106,2.0,8.0,27,0.00,,---,0.00,VWS V14.00,2013-08-15 18:38:00,
2013-08-15 13:39:00,87.8,52.5,29.76,East,96,0.0,8.0,30,0.00,,---,0.00,VWS V14.00,2013-08-15 18:39:00,
2013-08-15 13:41:00,86.7,52.5,29.76,SSE,158,0.0,8.0,31,0.00,,---,0.00,VWS V14.00,2013-08-15 18:41:00,
2013-08-15 13:42:00,86.7,52.5,29.76,ESE,103,0.0,8.0,31,0.00,,---,0.00,VWS V14.00,2013-08-15 18:42:00,
2013-08-15 13:44:00,86.3,52.1,29.77,ESE,104,0.0,8.0,31,0.00,,---,0.00,VWS V14.00,2013-08-15 18:44:00,
2013-08-15 13:46:00,85.7,51.6,29.77,East,95,0.0,8.0,31,0.00,,---,0.00,VWS V14.00,2013-08-15 18:46:00,
2013-08-15 13:47:00,85.3,52.1,29.77,NE,55,0.0,8.0,32,0.00,,---,0.00,VWS V14.00,2013-08-15 18:47:00,
2013-08-15 13:49:00,84.9,52.6,29.77,ENE,66,0.0,8.0,33,0.00,,---,0.00,VWS V14.00,2013-08-15 18:49:00,
2013-08-15 13:50:00,84.9,52.6,29.77,ENE,66,0.0,8.0,33,0.00,,---,0.00,VWS V14.00,2013-08-15 18:50:00,
2013-08-15 13:52:00,84.7,53.3,29.77,ENE,66,0.0,8.0,34,0.00,,---,0.00,VWS V14.00,2013-08-15 18:52:00,
2013-08-15 13:53:00,84.7,53.3,29.77,ENE,66,0.0,8.0,34,0.00,,---,0.00,VWS V14.00,2013-08-15 18:53:00,
2013-08-15 13:54:00,84.5,52.3,29.77,ENE,66,0.0,8.0,33,0.00,,---,0.00,VWS V14.00,2013-08-15 18:54:00,
2013-08-15 13:56:00,84.1,52.7,29.77,North,0,0.0,8.0,34,0.00,,---,0.00,VWS V14.00,2013-08-15 18:56:00,
2013-08-15 13:57:00,84.1,52.7,29.77,NNE,23,0.0,8.0,34,0.00,,---,0.00,VWS V14.00,2013-08-15 18:57:00,
2013-08-15 13:58:00,84.0,52.6,29.77,NNE,25,0.0,8.0,34,0.00,,---,0.00,VWS V14.00,2013-08-15 18:58:00,
2013-08-15 13:59:00,83.6,52.3,29.77,NNE,25,0.0,0.0,34,0.00,,---,0.00,VWS V14.00,2013-08-15 18:59:00,
2013-08-15 14:02:00,83.4,52.9,29.77,NNE,28,0.0,0.0,35,0.00,,---,0.00,VWS V14.00,2013-08-15 19:02:00,
2013-08-15 14:03:00,83.4,52.9,29.77,NNE,28,0.0,0.0,35,0.00,,---,0.00,VWS V14.00,2013-08-15 19:03:00,
2013-08-15 14:04:00,83.4,52.9,29.77,NNE,31,0.0,0.0,35,0.00,,---,0.00,VWS V14.00,2013-08-15 19:04:00,
2013-08-15 14:05:00,83.4,53.7,29.77,NNE,31,0.0,0.0,36,0.00,,---,0.00,VWS V14.00,2013-08-15 19:05:00,
2013-08-15 14:07:00,83.2,53.5,29.77,NNE,30,0.0,0.0,36,0.00,,---,0.00,VWS V14.00,2013-08-15 19:07:00,
2013-08-15 14:08:00,83.2,52.7,29.77,NNE,30,0.0,0.0,35,0.00,,---,0.00,VWS V14.00,2013-08-15 19:08:00,
2013-08-15 14:10:00,83.2,52.7,29.77,NNE,30,0.0,0.0,35,0.00,,---,0.00,VWS V14.00,2013-08-15 19:10:00,
2013-08-15 14:12:00,83.0,53.3,29.77,ENE,66,0.0,0.0,36,0.00,,---,0.00,VWS V14.00,2013-08-15 19:12:00,
2013-08-15 14:14:00,83.2,53.5,29.78,ENE,66,0.0,0.0,36,0.00,,---,0.00,VWS V14.00,2013-08-15 19:14:00,
2013-08-15 14:15:00,84.0,54.2,29.78,ENE,65,0.0,0.0,36,0.00,,---,0.00,VWS V14.00,2013-08-15 19:15:00,
2013-08-15 14:16:00,84.3,54.5,29.78,ENE,68,0.0,0.0,36,0.00,,---,0.00,VWS V14.00,2013-08-15 19:16:00,
2013-08-15 14:17:00,85.7,54.9,29.78,NNE,30,0.0,0.0,35,0.00,,---,0.00,VWS V14.00,2013-08-15 19:17:00,
2013-08-15 14:19:00,85.5,53.1,29.78,NE,38,0.0,0.0,33,0.00,,---,0.00,VWS V14.00,2013-08-15 19:19:00,
2013-08-15 14:20:00,85.7,53.3,29.78,North,6,0.0,0.0,33,0.00,,---,0.00,VWS V14.00,2013-08-15 19:20:00,
2013-08-15 14:21:00,85.7,53.3,29.78,NNE,13,0.0,0.0,33,0.00,,---,0.00,VWS V14.00,2013-08-15 19:21:00,
2013-08-15 14:24:00,87.0,53.6,29.78,North,7,0.0,0.0,32,0.00,,---,0.00,VWS V14.00,2013-08-15 19:24:00,
2013-08-15 14:26:00,86.7,54.2,29.78,NE,42,0.0,0.0,33,0.00,,---,0.00,VWS V14.00,2013-08-15 19:26:00,
2013-08-15 14:27:00,86.7,51.6,29.78,ESE,110,1.0,8.0,30,0.00,,---,0.00,VWS V14.00,2013-08-15 19:27:00,
2013-08-15 14:29:00,87.2,52.9,29.75,ENE,65,8.0,11.0,31,0.00,,---,0.00,VWS V14.00,2013-08-15 19:29:00,
2013-08-15 14:31:00,86.5,52.3,29.75,East,93,1.0,7.0,31,0.00,,---,0.00,VWS V14.00,2013-08-15 19:31:00,
2013-08-15 14:32:00,85.9,52.7,29.75,ESE,112,0.0,7.0,32,0.00,,---,0.00,VWS V14.00,2013-08-15 19:32:00,
2013-08-15 14:34:00,85.5,52.3,29.75,North,356,0.0,7.0,32,0.00,,---,0.00,VWS V14.00,2013-08-15 19:34:00,
2013-08-15 14:36:00,85.3,52.1,29.75,NE,44,0.0,7.0,32,0.00,,---,0.00,VWS V14.00,2013-08-15 19:36:00,
2013-08-15 14:37:00,85.3,52.1,29.75,NE,44,0.0,7.0,32,0.00,,---,0.00,VWS V14.00,2013-08-15 19:37:00,
2013-08-15 14:38:00,85.1,52.0,29.75,NE,40,0.0,7.0,32,0.00,,---,0.00,VWS V14.00,2013-08-15 19:38:00,
2013-08-15 14:39:00,85.1,52.0,29.75,NE,41,1.0,7.0,32,0.00,,---,0.00,VWS V14.00,2013-08-15 19:39:00,
2013-08-15 14:41:00,84.9,51.8,29.75,NNE,21,2.0,7.0,32,0.00,,---,0.00,VWS V14.00,2013-08-15 19:41:00,
2013-08-15 14:42:00,84.9,51.8,29.75,NNE,24,0.0,7.0,32,0.00,,---,0.00,VWS V14.00,2013-08-15 19:42:00,
2013-08-15 14:43:00,84.5,51.4,29.77,NE,51,0.0,7.0,32,0.00,,---,0.00,VWS V14.00,2013-08-15 19:43:00,
2013-08-15 14:45:00,84.3,50.4,29.77,ENE,62,0.0,7.0,31,0.00,,---,0.00,VWS V14.00,2013-08-15 19:45:00,
2013-08-15 14:46:00,84.5,50.6,29.77,North,0,0.0,7.0,31,0.00,,---,0.00,VWS V14.00,2013-08-15 19:46:00,
2013-08-15 14:47:00,84.5,50.6,29.77,ENE,62,0.0,7.0,31,0.00,,---,0.00,VWS V14.00,2013-08-15 19:47:00,
2013-08-15 14:48:00,84.5,50.6,29.77,ENE,69,0.0,7.0,31,0.00,,---,0.00,VWS V14.00,2013-08-15 19:48:00,
2013-08-15 14:50:00,84.1,50.2,29.77,East,89,0.0,7.0,31,0.00,,---,0.00,VWS V14.00,2013-08-15 19:50:00,
2013-08-15 14:52:00,84.1,51.9,29.77,East,92,0.0,7.0,33,0.00,,---,0.00,VWS V14.00,2013-08-15 19:52:00,
2013-08-15 14:53:00,84.0,51.8,29.77,ENE,61,7.0,7.0,33,0.00,,---,0.00,VWS V14.00,2013-08-15 19:53:00,
2013-08-15 14:57:00,83.6,52.3,29.77,North,11,0.0,7.0,34,0.00,,---,0.00,VWS V14.00,2013-08-15 19:57:00,
2013-08-15 14:58:00,83.6,51.5,29.77,North,11,0.0,7.0,33,0.00,,---,0.00,VWS V14.00,2013-08-15 19:58:00,
2013-08-15 15:01:00,83.4,51.3,29.77,NNE,14,1.0,6.0,33,0.00,,---,0.00,VWS V14.00,2013-08-15 20:01:00,
2013-08-15 15:02:00,83.4,51.3,29.77,NNE,17,3.0,6.0,33,0.00,,---,0.00,VWS V14.00,2013-08-15 20:02:00,
2013-08-15 15:04:00,83.2,50.3,29.77,NE,45,1.0,7.0,32,0.00,,---,0.00,VWS V14.00,2013-08-15 20:04:00,
2013-08-15 15:05:00,83.2,50.3,29.77,NE,45,0.0,7.0,32,0.00,,---,0.00,VWS V14.00,2013-08-15 20:05:00,
2013-08-15 15:07:00,83.2,50.3,29.77,NE,45,0.0,7.0,32,0.00,,---,0.00,VWS V14.00,2013-08-15 20:07:00,
2013-08-15 15:09:00,83.2,50.3,29.77,North,8,0.0,7.0,32,0.00,,---,0.00,VWS V14.00,2013-08-15 20:09:00,
2013-08-15 15:10:00,83.2,51.9,29.77,NNE,30,7.0,7.0,34,0.00,,---,0.00,VWS V14.00,2013-08-15 20:10:00,
2013-08-15 15:13:00,83.4,51.3,29.77,East,95,0.0,7.0,33,0.00,,---,0.00,VWS V14.00,2013-08-15 20:13:00,
2013-08-15 15:14:00,83.2,51.1,29.77,NE,49,0.0,7.0,33,0.00,,---,0.00,VWS V14.00,2013-08-15 20:14:00,
2013-08-15 15:15:00,83.4,50.5,29.77,NE,44,0.0,7.0,32,0.00,,---,0.00,VWS V14.00,2013-08-15 20:15:00,
2013-08-15 15:18:00,83.4,49.6,29.77,NE,45,0.0,7.0,31,0.00,,---,0.00,VWS V14.00,2013-08-15 20:18:00,
2013-08-15 15:19:00,83.4,50.5,29.77,NE,45,0.0,7.0,32,0.00,,---,0.00,VWS V14.00,2013-08-15 20:19:00,
2013-08-15 15:20:00,83.4,50.5,29.77,NE,45,0.0,7.0,32,0.00,,---,0.00,VWS V14.00,2013-08-15 20:20:00,
2013-08-15 15:21:00,83.4,50.5,29.77,NE,45,0.0,7.0,32,0.00,,---,0.00,VWS V14.00,2013-08-15 20:21:00,
2013-08-15 15:23:00,83.4,51.3,29.77,NE,41,0.0,7.0,33,0.00,,---,0.00,VWS V14.00,2013-08-15 20:23:00,
2013-08-15 15:24:00,83.4,51.3,29.77,NE,41,0.0,7.0,33,0.00,,---,0.00,VWS V14.00,2013-08-15 20:24:00,
2013-08-15 15:26:00,83.4,51.3,29.77,NE,35,0.0,7.0,33,0.00,,---,0.00,VWS V14.00,2013-08-15 20:26:00,
2013-08-15 15:29:00,83.8,52.5,29.76,NNW,328,0.0,7.0,34,0.00,,---,0.00,VWS V14.00,2013-08-15 20:29:00,
2013-08-15 15:30:00,84.0,51.8,29.76,NNW,328,0.0,0.0,33,0.00,,---,0.00,VWS V14.00,2013-08-15 20:30:00,
2013-08-15 15:32:00,84.3,52.1,29.76,SE,127,0.0,0.0,33,0.00,,---,0.00,VWS V14.00,2013-08-15 20:32:00,
2013-08-15 15:34:00,85.1,52.8,29.76,SE,124,1.0,8.0,33,0.00,,---,0.00,VWS V14.00,2013-08-15 20:34:00,
2013-08-15 15:36:00,85.3,52.1,29.76,ESE,116,0.0,8.0,32,0.00,,---,0.00,VWS V14.00,2013-08-15 20:36:00,
2013-08-15 15:37:00,85.5,51.4,29.76,SW,236,4.0,10.0,31,0.00,,---,0.00,VWS V14.00,2013-08-15 20:37:00,
2013-08-15 15:39:00,85.1,55.2,29.76,WSW,254,0.0,10.0,36,0.00,,---,0.00,VWS V14.00,2013-08-15 20:39:00,
2013-08-15 15:41:00,84.3,54.5,29.76,West,271,5.0,10.0,36,0.00,,---,0.00,VWS V14.00,2013-08-15 20:41:00,
2013-08-15 15:43:00,84.0,53.4,29.75,SW,222,0.0,11.0,35,0.00,,---,0.00,VWS V14.00,2013-08-15 20:43:00,
2013-08-15 15:44:00,83.8,53.3,29.75,SW,222,0.0,11.0,35,0.00,,---,0.00,VWS V14.00,2013-08-15 20:44:00,
2013-08-15 15:45:00,83.8,52.5,29.75,SW,222,0.0,11.0,34,0.00,,---,0.00,VWS V14.00,2013-08-15 20:45:00,
2013-08-15 15:46:00,83.8,52.5,29.75,SW,216,1.0,11.0,34,0.00,,---,0.00,VWS V14.00,2013-08-15 20:46:00,
2013-08-15 15:49:00,83.0,51.8,29.75,SSW,202,0.0,11.0,34,0.00,,---,0.00,VWS V14.00,2013-08-15 20:49:00,
2013-08-15 15:50:00,83.0,51.8,29.75,SSW,200,11.0,11.0,34,0.00,,---,0.00,VWS V14.00,2013-08-15 20:50:00,
2013-08-15 15:51:00,82.2,51.8,29.75,SSW,195,7.0,11.0,35,0.00,,---,0.00,VWS V14.00,2013-08-15 20:51:00,
2013-08-15 15:55:00,81.4,51.2,29.75,SW,227,2.0,11.0,35,0.00,,---,0.00,VWS V14.00,2013-08-15 20:55:00,
2013-08-15 16:00:00,80.5,51.9,29.77,SW,222,7.0,7.0,37,0.00,,---,0.00,VWS V14.00,2013-08-15 21:00:00,
2013-08-15 16:02:00,80.3,51.7,29.77,SW,236,5.0,7.0,37,0.00,,---,0.00,VWS V14.00,2013-08-15 21:02:00,
2013-08-15 16:03:00,80.3,50.9,29.77,WSW,257,5.0,7.0,36,0.00,,---,0.00,VWS V14.00,2013-08-15 21:03:00,
2013-08-15 16:05:00,79.9,52.8,29.77,West,274,8.0,12.0,39,0.00,,---,0.00,VWS V14.00,2013-08-15 21:05:00,
2013-08-15 16:07:00,79.8,52.7,29.77,West,275,5.0,12.0,39,0.00,,---,0.00,VWS V14.00,2013-08-15 21:07:00,
2013-08-15 16:08:00,79.8,54.0,29.77,West,261,1.0,12.0,41,0.00,,---,0.00,VWS V14.00,2013-08-15 21:08:00,
2013-08-15 16:10:00,79.6,53.2,29.77,WSW,243,3.0,12.0,40,0.00,,---,0.00,VWS V14.00,2013-08-15 21:10:00,
2013-08-15 16:12:00,79.4,53.0,29.77,SW,230,5.0,12.0,40,0.00,,---,0.00,VWS V14.00,2013-08-15 21:12:00,
2013-08-15 16:14:00,79.2,52.8,29.78,WSW,237,7.0,12.0,40,0.00,,---,0.00,VWS V14.00,2013-08-15 21:14:00,
2013-08-15 16:15:00,79.2,53.5,29.78,SW,224,5.0,12.0,41,0.00,,---,0.00,VWS V14.00,2013-08-15 21:15:00,
2013-08-15 16:17:00,79.2,52.8,29.78,WSW,258,6.0,12.0,40,0.00,,---,0.00,VWS V14.00,2013-08-15 21:17:00,
2013-08-15 16:19:00,79.2,53.5,29.78,SSW,208,2.0,12.0,41,0.00,,---,0.00,VWS V14.00,2013-08-15 21:19:00,
2013-08-15 16:21:00,79.0,53.3,29.78,West,274,3.0,12.0,41,0.00,,---,0.00,VWS V14.00,2013-08-15 21:21:00,
2013-08-15 16:22:00,79.0,52.6,29.78,West,264,3.0,12.0,40,0.00,,---,0.00,VWS V14.00,2013-08-15 21:22:00,
2013-08-15 16:24:00,79.0,53.3,29.78,WNW,282,4.0,12.0,41,0.00,,---,0.00,VWS V14.00,2013-08-15 21:24:00,
2013-08-15 16:26:00,79.0,54.0,29.78,SW,216,3.0,12.0,42,0.00,,---,0.00,VWS V14.00,2013-08-15 21:26:00,
2013-08-15 16:28:00,78.8,53.1,29.78,SW,220,5.0,12.0,41,0.00,,---,0.00,VWS V14.00,2013-08-15 21:28:00,
2013-08-15 16:29:00,78.8,53.1,29.78,SW,236,2.0,12.0,41,0.00,,---,0.00,VWS V14.00,2013-08-15 21:29:00,
2013-08-15 16:31:00,78.8,53.1,29.78,SW,226,4.0,10.0,41,0.00,,---,0.00,VWS V14.00,2013-08-15 21:31:00,
2013-08-15 16:35:00,78.8,53.1,29.78,SW,220,4.0,10.0,41,0.00,,---,0.00,VWS V14.00,2013-08-15 21:35:00,
2013-08-15 16:36:00,78.8,53.1,29.78,West,268,3.0,10.0,41,0.00,,---,0.00,VWS V14.00,2013-08-15 21:36:00,
2013-08-15 16:37:00,78.8,53.1,29.78,West,260,2.0,10.0,41,0.00,,---,0.00,VWS V14.00,2013-08-15 21:37:00,
2013-08-15 16:38:00,78.8,52.5,29.78,WSW,251,5.0,10.0,40,0.00,,---,0.00,VWS V14.00,2013-08-15 21:38:00,
2013-08-15 16:39:00,78.8,52.5,29.78,SSW,208,3.0,10.0,40,0.00,,---,0.00,VWS V14.00,2013-08-15 21:39:00,
2013-08-15 16:41:00,78.8,52.5,29.78,SSW,213,2.0,10.0,40,0.00,,---,0.00,VWS V14.00,2013-08-15 21:41:00,
2013-08-15 16:42:00,78.8,52.5,29.78,SSW,199,2.0,11.0,40,0.00,,---,0.00,VWS V14.00,2013-08-15 21:42:00,
2013-08-15 16:43:00,78.8,52.5,29.78,SSW,198,6.0,11.0,40,0.00,,---,0.00,VWS V14.00,2013-08-15 21:43:00,
2013-08-15 16:44:00,78.8,52.5,29.77,SW,219,10.0,11.0,40,0.00,,---,0.00,VWS V14.00,2013-08-15 21:44:00,
2013-08-15 16:47:00,78.8,52.5,29.77,SW,224,3.0,11.0,40,0.00,,---,0.00,VWS V14.00,2013-08-15 21:47:00,
2013-08-15 16:48:00,79.0,52.6,29.77,SSW,193,3.0,11.0,40,0.00,,---,0.00,VWS V14.00,2013-08-15 21:48:00,
2013-08-15 16:49:00,79.0,52.6,29.77,SSW,196,6.0,12.0,40,0.00,,---,0.00,VWS V14.00,2013-08-15 21:49:00,
2013-08-15 16:52:00,79.0,52.6,29.77,SSW,209,12.0,14.0,40,0.00,,---,0.00,VWS V14.00,2013-08-15 21:52:00,
2013-08-15 16:53:00,79.2,52.8,29.77,SW,217,3.0,14.0,40,0.00,,---,0.00,VWS V14.00,2013-08-15 21:53:00,
2013-08-15 16:54:00,79.6,52.5,29.77,SW,234,6.0,14.0,39,0.00,,---,0.00,VWS V14.00,2013-08-15 21:54:00,
2013-08-15 16:55:00,79.8,50.5,29.77,SSW,198,3.0,14.0,36,0.00,,---,0.00,VWS V14.00,2013-08-15 21:55:00,
2013-08-15 16:57:00,80.7,52.0,29.77,SW,223,5.0,14.0,37,0.00,,---,0.00,VWS V14.00,2013-08-15 21:57:00,
2013-08-15 16:58:00,80.9,52.2,29.77,SSW,213,6.0,14.0,37,0.00,,---,0.00,VWS V14.00,2013-08-15 21:58:00,
2013-08-15 16:59:00,81.1,50.9,29.76,SW,219,7.0,7.0,35,0.00,,---,0.00,VWS V14.00,2013-08-15 21:59:00,
2013-08-15 17:01:00,81.2,51.0,29.76,South,181,2.0,10.0,35,0.00,,---,0.00,VWS V14.00,2013-08-15 22:01:00,
2013-08-15 17:03:00,81.2,51.0,29.76,SSW,205,7.0,10.0,35,0.00,,---,0.00,VWS V14.00,2013-08-15 22:03:00,
2013-08-15 17:04:00,81.2,51.0,29.76,SSW,203,10.0,10.0,35,0.00,,---,0.00,VWS V14.00,2013-08-15 22:04:00,
2013-08-15 17:06:00,81.4,51.9,29.76,SSW,212,8.0,11.0,36,0.00,,---,0.00,VWS V14.00,2013-08-15 22:06:00,
2013-08-15 17:08:00,82.0,50.9,29.76,South,185,7.0,16.0,34,0.00,,---,0.00,VWS V14.00,2013-08-15 22:08:00,
2013-08-15 17:09:00,82.2,51.1,29.76,WNW,288,2.0,16.0,34,0.00,,---,0.00,VWS V14.00,2013-08-15 22:09:00,
2013-08-15 17:11:00,82.6,51.4,29.76,WSW,244,0.0,16.0,34,0.00,,---,0.00,VWS V14.00,2013-08-15 22:11:00,
2013-08-15 17:13:00,82.8,50.0,29.76,WSW,253,6.0,16.0,32,0.00,,---,0.00,VWS V14.00,2013-08-15 22:13:00,
2013-08-15 17:14:00,83.0,50.1,29.76,West,263,8.0,16.0,32,0.00,,---,0.00,VWS V14.00,2013-08-15 22:14:00,
2013-08-15 17:16:00,83.2,51.1,29.76,SSW,203,10.0,16.0,33,0.00,,---,0.00,VWS V14.00,2013-08-15 22:16:00,
2013-08-15 17:19:00,82.8,49.1,29.76,SW,220,10.0,16.0,31,0.00,,---,0.00,VWS V14.00,2013-08-15 22:19:00,
2013-08-15 17:21:00,82.8,49.1,29.76,SSW,199,10.0,16.0,31,0.00,,---,0.00,VWS V14.00,2013-08-15 22:21:00,
2013-08-15 17:22:00,82.8,49.1,29.76,SSW,198,8.0,16.0,31,0.00,,---,0.00,VWS V14.00,2013-08-15 22:22:00,
2013-08-15 17:24:00,83.0,49.3,29.76,SSW,209,5.0,16.0,31,0.00,,---,0.00,VWS V14.00,2013-08-15 22:24:00,
2013-08-15 17:26:00,82.6,48.1,29.76,SSW,205,5.0,16.0,30,0.00,,---,0.00,VWS V14.00,2013-08-15 22:26:00,
2013-08-15 17:27:00,82.6,48.1,29.76,SSW,195,7.0,16.0,30,0.00,,---,0.00,VWS V14.00,2013-08-15 22:27:00,
2013-08-15 17:29:00,83.0,48.4,29.76,SW,226,0.0,16.0,30,0.00,,---,0.00,VWS V14.00,2013-08-15 22:29:00,
2013-08-15 17:32:00,83.0,48.4,29.76,WSW,254,5.0,8.0,30,0.00,,---,0.00,VWS V14.00,2013-08-15 22:32:00,
2013-08-15 17:34:00,82.8,48.2,29.76,West,278,0.0,8.0,30,0.00,,---,0.00,VWS V14.00,2013-08-15 22:34:00,
2013-08-15 17:37:00,82.0,48.4,29.76,SW,233,2.0,8.0,31,0.00,,---,0.00,VWS V14.00,2013-08-15 22:37:00,
2013-08-15 17:39:00,81.8,47.4,29.76,SW,224,7.0,8.0,30,0.00,,---,0.00,VWS V14.00,2013-08-15 22:39:00,
2013-08-15 17:40:00,81.4,47.0,29.76,West,267,4.0,8.0,30,0.00,,---,0.00,VWS V14.00,2013-08-15 22:40:00,
2013-08-15 17:42:00,81.4,47.0,29.76,SW,229,4.0,8.0,30,0.00,,---,0.00,VWS V14.00,2013-08-15 22:42:00,
2013-08-15 17:44:00,81.6,48.1,29.77,SW,232,0.0,8.0,31,0.00,,---,0.00,VWS V14.00,2013-08-15 22:44:00,
2013-08-15 17:45:00,81.6,48.1,29.77,SSW,209,0.0,8.0,31,0.00,,---,0.00,VWS V14.00,2013-08-15 22:45:00,
2013-08-15 17:47:00,82.0,48.4,29.77,SW,229,4.0,10.0,31,0.00,,---,0.00,VWS V14.00,2013-08-15 22:47:00,
2013-08-15 17:48:00,82.0,49.3,29.77,SW,232,0.0,10.0,32,0.00,,---,0.00,VWS V14.00,2013-08-15 22:48:00,
2013-08-15 17:49:00,82.4,47.9,29.77,WSW,237,0.0,10.0,30,0.00,,---,0.00,VWS V14.00,2013-08-15 22:49:00,
2013-08-15 17:50:00,82.4,47.9,29.77,SW,236,4.0,10.0,30,0.00,,---,0.00,VWS V14.00,2013-08-15 22:50:00,
2013-08-15 17:52:00,83.0,48.4,29.77,SSW,210,1.0,10.0,30,0.00,,---,0.00,VWS V14.00,2013-08-15 22:52:00,
2013-08-15 17:53:00,83.2,48.6,29.77,SW,220,1.0,10.0,30,0.00,,---,0.00,VWS V14.00,2013-08-15 22:53:00,
2013-08-15 17:55:00,83.4,48.8,29.77,SW,224,0.0,10.0,30,0.00,,---,0.00,VWS V14.00,2013-08-15 22:55:00,
2013-08-15 17:56:00,83.2,46.7,29.77,SSW,213,0.0,10.0,28,0.00,,---,0.00,VWS V14.00,2013-08-15 22:56:00,
2013-08-15 17:57:00,83.2,47.7,29.77,SSW,213,0.0,10.0,29,0.00,,---,0.00,VWS V14.00,2013-08-15 22:57:00,
2013-08-15 17:58:00,83.2,47.7,29.77,SSW,213,0.0,10.0,29,0.00,,---,0.00,VWS V14.00,2013-08-15 22:58:00,
2013-08-15 18:00:00,82.8,47.3,29.75,SW,233,4.0,7.0,29,0.00,,---,0.00,VWS V14.00,2013-08-15 23:00:00,
2013-08-15 18:01:00,83.0,47.5,29.75,WSW,240,0.0,7.0,29,0.00,,---,0.00,VWS V14.00,2013-08-15 23:01:00,
2013-08-15 18:05:00,83.2,48.6,29.75,WSW,241,0.0,7.0,30,0.00,,---,0.00,VWS V14.00,2013-08-15 23:05:00,
2013-08-15 18:06:00,83.2,48.6,29.75,WSW,241,0.0,7.0,30,0.00,,---,0.00,VWS V14.00,2013-08-15 23:06:00,
2013-08-15 18:07:00,83.4,48.8,29.75,WSW,241,0.0,7.0,30,0.00,,---,0.00,VWS V14.00,2013-08-15 23:07:00,
2013-08-15 18:10:00,83.4,48.8,29.75,WSW,240,0.0,7.0,30,0.00,,---,0.00,VWS V14.00,2013-08-15 23:10:00,
2013-08-15 18:11:00,83.4,48.8,29.75,WSW,240,0.0,7.0,30,0.00,,---,0.00,VWS V14.00,2013-08-15 23:11:00,
2013-08-15 18:12:00,83.4,47.8,29.75,WSW,240,0.0,7.0,29,0.00,,---,0.00,VWS V14.00,2013-08-15 23:12:00,
2013-08-15 18:15:00,83.6,48.0,29.76,WSW,240,0.0,7.0,29,0.00,,---,0.00,VWS V14.00,2013-08-15 23:15:00,
2013-08-15 18:16:00,83.6,48.0,29.76,WSW,240,0.0,7.0,29,0.00,,---,0.00,VWS V14.00,2013-08-15 23:16:00,
2013-08-15 18:17:00,83.6,48.0,29.76,WSW,240,0.0,7.0,29,0.00,,---,0.00,VWS V14.00,2013-08-15 23:17:00,
2013-08-15 18:20:00,84.5,48.8,29.76,WSW,240,0.0,7.0,29,0.00,,---,0.00,VWS V14.00,2013-08-15 23:20:00,
2013-08-15 18:21:00,84.5,47.8,29.76,WSW,240,0.0,7.0,28,0.00,,---,0.00,VWS V14.00,2013-08-15 23:21:00,
2013-08-15 18:22:00,84.5,48.8,29.76,WSW,240,0.0,7.0,29,0.00,,---,0.00,VWS V14.00,2013-08-15 23:22:00,
2013-08-15 18:26:00,85.1,49.3,29.76,WSW,240,0.0,7.0,29,0.00,,---,0.00,VWS V14.00,2013-08-15 23:26:00,
2013-08-15 18:27:00,85.1,49.3,29.76,WSW,240,0.0,7.0,29,0.00,,---,0.00,VWS V14.00,2013-08-15 23:27:00,
2013-08-15 18:31:00,85.5,48.7,29.75,WSW,240,0.0,0.0,28,0.00,,---,0.00,VWS V14.00,2013-08-15 23:31:00,
2013-08-15 18:32:00,85.5,48.7,29.75,WSW,240,0.0,0.0,28,0.00,,---,0.00,VWS V14.00,2013-08-15 23:32:00,
2013-08-15 18:33:00,85.5,48.7,29.75,WSW,240,0.0,0.0,28,0.00,,---,0.00,VWS V14.00,2013-08-15 23:33:00,
2013-08-15 18:37:00,85.3,49.5,29.75,WSW,241,0.0,0.0,29,0.00,,---,0.00,VWS V14.00,2013-08-15 23:37:00,
2013-08-15 18:38:00,85.3,48.5,29.75,WSW,241,0.0,0.0,28,0.00,,---,0.00,VWS V14.00,2013-08-15 23:38:00,
2013-08-15 18:42:00,85.5,49.7,29.75,WSW,241,0.0,0.0,29,0.00,,---,0.00,VWS V14.00,2013-08-15 23:42:00,
2013-08-15 18:43:00,85.3,48.5,29.75,WSW,241,0.0,0.0,28,0.00,,---,0.00,VWS V14.00,2013-08-15 23:43:00,
2013-08-15 18:44:00,85.3,48.5,29.75,WSW,241,0.0,0.0,28,0.00,,---,0.00,VWS V14.00,2013-08-15 23:44:00,
2013-08-15 18:47:00,85.3,54.6,29.75,WSW,241,0.0,0.0,35,0.00,,---,0.00,VWS V14.00,2013-08-15 23:47:00,
2013-08-15 18:48:00,85.3,54.6,29.75,WSW,241,0.0,0.0,35,0.00,,---,0.00,VWS V14.00,2013-08-15 23:48:00,
2013-08-15 18:49:00,85.3,54.6,29.75,WSW,241,0.0,0.0,35,0.00,,---,0.00,VWS V14.00,2013-08-15 23:49:00,
2013-08-15 18:52:00,85.7,48.9,29.75,WSW,241,0.0,0.0,28,0.00,,---,0.00,VWS V14.00,2013-08-15 23:52:00,
2013-08-15 18:53:00,85.5,48.7,29.75,WSW,243,0.0,0.0,28,0.00,,---,0.00,VWS V14.00,2013-08-15 23:53:00,
2013-08-15 18:54:00,85.3,49.5,29.75,WSW,257,0.0,0.0,29,0.00,,---,0.00,VWS V14.00,2013-08-15 23:54:00,
2013-08-15 18:58:00,85.3,49.5,29.75,WSW,257,0.0,0.0,29,0.00,,---,0.00,VWS V14.00,2013-08-15 23:58:00,
2013-08-15 18:59:00,85.3,48.5,29.75,East,88,0.0,0.0,28,0.00,,---,0.00,VWS V14.00,2013-08-15 23:59:00,
2013-08-15 19:00:00,85.1,49.3,29.75,ENE,78,0.0,0.0,29,0.00,,---,0.00,VWS V14.00,2013-08-16 00:00:00,
2013-08-15 19:03:00,84.9,48.2,29.75,ENE,78,0.0,0.0,28,0.00,,---,0.00,VWS V14.00,2013-08-16 00:03:00,
2013-08-15 19:05:00,85.1,48.4,29.75,ENE,78,0.0,0.0,28,0.00,,---,0.00,VWS V14.00,2013-08-16 00:05:00,
2013-08-15 19:06:00,85.1,49.3,29.75,ENE,78,0.0,0.0,29,0.00,,---,0.00,VWS V14.00,2013-08-16 00:06:00,
2013-08-15 19:07:00,85.1,49.3,29.75,ENE,78,0.0,0.0,29,0.00,,---,0.00,VWS V14.00,2013-08-16 00:07:00,
2013-08-15 19:08:00,84.9,50.0,29.75,East,80,0.0,0.0,30,0.00,,---,0.00,VWS V14.00,2013-08-16 00:08:00,
2013-08-15 19:10:00,84.7,49.9,29.75,East,80,0.0,0.0,30,0.00,,---,0.00,VWS V14.00,2013-08-16 00:10:00,
2013-08-15 19:12:00,84.7,49.9,29.75,East,80,0.0,0.0,30,0.00,,---,0.00,VWS V14.00,2013-08-16 00:12:00,
2013-08-15 19:13:00,84.5,49.7,29.74,East,80,0.0,0.0,30,0.00,,---,0.00,VWS V14.00,2013-08-16 00:13:00,
2013-08-15 19:15:00,84.3,48.6,29.74,East,80,0.0,0.0,29,0.00,,---,0.00,VWS V14.00,2013-08-16 00:15:00,
2013-08-15 19:17:00,84.1,50.2,29.74,East,80,0.0,0.0,31,0.00,,---,0.00,VWS V14.00,2013-08-16 00:17:00,
2013-08-15 19:18:00,84.0,49.3,29.74,East,80,0.0,0.0,30,0.00,,---,0.00,VWS V14.00,2013-08-16 00:18:00,
2013-08-15 19:21:00,83.8,49.1,29.74,East,80,0.0,0.0,30,0.00,,---,0.00,VWS V14.00,2013-08-16 00:21:00,
2013-08-15 19:22:00,83.8,50.0,29.74,East,80,0.0,0.0,31,0.00,,---,0.00,VWS V14.00,2013-08-16 00:22:00,
2013-08-15 19:24:00,83.8,49.1,29.74,East,80,0.0,0.0,30,0.00,,---,0.00,VWS V14.00,2013-08-16 00:24:00,
2013-08-15 19:26:00,83.6,49.8,29.74,East,80,0.0,0.0,31,0.00,,---,0.00,VWS V14.00,2013-08-16 00:26:00,
2013-08-15 19:27:00,83.6,49.8,29.74,East,80,0.0,0.0,31,0.00,,---,0.00,VWS V14.00,2013-08-16 00:27:00,
2013-08-15 19:29:00,83.6,49.8,29.75,East,80,0.0,0.0,31,0.00,,---,0.00,VWS V14.00,2013-08-16 00:29:00,
2013-08-15 19:31:00,83.4,49.6,29.75,North,359,0.0,0.0,31,0.00,,---,0.00,VWS V14.00,2013-08-16 00:31:00,
2013-08-15 19:32:00,83.2,49.5,29.75,North,357,0.0,0.0,31,0.00,,---,0.00,VWS V14.00,2013-08-16 00:32:00,
2013-08-15 19:33:00,83.2,49.5,29.75,North,357,0.0,0.0,31,0.00,,---,0.00,VWS V14.00,2013-08-16 00:33:00,
2013-08-15 19:34:00,83.0,50.1,29.75,North,357,0.0,0.0,32,0.00,,---,0.00,VWS V14.00,2013-08-16 00:34:00,
2013-08-15 19:36:00,82.8,50.0,29.75,North,357,0.0,0.0,32,0.00,,---,0.00,VWS V14.00,2013-08-16 00:36:00,
2013-08-15 19:38:00,82.8,50.0,29.75,North,357,0.0,0.0,32,0.00,,---,0.00,VWS V14.00,2013-08-16 00:38:00,
2013-08-15 19:40:00,82.6,50.6,29.75,North,357,0.0,0.0,33,0.00,,---,0.00,VWS V14.00,2013-08-16 00:40:00,
2013-08-15 19:42:00,82.6,49.8,29.75,NE,44,0.0,0.0,32,0.00,,---,0.00,VWS V14.00,2013-08-16 00:42:00,
2013-08-15 19:43:00,82.4,49.6,29.76,NE,44,0.0,0.0,32,0.00,,---,0.00,VWS V14.00,2013-08-16 00:43:00,
2013-08-15 19:45:00,82.2,50.3,29.76,NE,44,0.0,0.0,33,0.00,,---,0.00,VWS V14.00,2013-08-16 00:45:00,
2013-08-15 19:47:00,82.2,50.3,29.76,NE,44,0.0,0.0,33,0.00,,---,0.00,VWS V14.00,2013-08-16 00:47:00,
2013-08-15 19:48:00,82.0,50.1,29.76,NE,44,0.0,0.0,33,0.00,,---,0.00,VWS V14.00,2013-08-16 00:48:00,
2013-08-15 19:49:00,82.0,50.1,29.76,NE,44,0.0,0.0,33,0.00,,---,0.00,VWS V14.00,2013-08-16 00:49:00,
2013-08-15 19:50:00,82.0,50.1,29.76,NE,44,0.0,0.0,33,0.00,,---,0.00,VWS V14.00,2013-08-16 00:50:00,
2013-08-15 19:51:00,82.0,50.1,29.76,NE,44,0.0,0.0,33,0.00,,---,0.00,VWS V14.00,2013-08-16 00:51:00,
2013-08-15 19:52:00,81.8,49.9,29.76,NE,47,0.0,0.0,33,0.00,,---,0.00,VWS V14.00,2013-08-16 00:52:00,
2013-08-15 19:54:00,81.8,49.9,29.76,NE,47,0.0,0.0,33,0.00,,---,0.00,VWS V14.00,2013-08-16 00:54:00,
2013-08-15 19:55:00,81.6,50.5,29.76,NE,47,0.0,0.0,34,0.00,,---,0.00,VWS V14.00,2013-08-16 00:55:00,
2013-08-15 19:56:00,81.6,50.5,29.76,NE,47,0.0,0.0,34,0.00,,---,0.00,VWS V14.00,2013-08-16 00:56:00,
2013-08-15 19:57:00,81.6,49.7,29.76,NE,47,0.0,0.0,33,0.00,,---,0.00,VWS V14.00,2013-08-16 00:57:00,
2013-08-15 19:59:00,81.4,50.4,29.76,NE,47,0.0,0.0,34,0.00,,---,0.00,VWS V14.00,2013-08-16 00:59:00,
2013-08-15 20:00:00,81.2,50.2,29.76,NE,51,0.0,0.0,34,0.00,,---,0.00,VWS V14.00,2013-08-16 01:00:00,
2013-08-15 20:01:00,81.2,50.2,29.76,NE,51,0.0,0.0,34,0.00,,---,0.00,VWS V14.00,2013-08-16 01:01:00,
2013-08-15 20:03:00,81.1,50.1,29.76,NE,51,0.0,0.0,34,0.00,,---,0.00,VWS V14.00,2013-08-16 01:03:00,
2013-08-15 20:04:00,81.1,50.1,29.76,NE,51,0.0,0.0,34,0.00,,---,0.00,VWS V14.00,2013-08-16 01:04:00,
2013-08-15 20:06:00,80.9,49.9,29.76,NE,51,0.0,0.0,34,0.00,,---,0.00,VWS V14.00,2013-08-16 01:06:00,
2013-08-15 20:08:00,80.7,50.5,29.76,NE,51,0.0,0.0,35,0.00,,---,0.00,VWS V14.00,2013-08-16 01:08:00,
2013-08-15 20:09:00,80.7,50.5,29.76,NE,51,0.0,0.0,35,0.00,,---,0.00,VWS V14.00,2013-08-16 01:09:00,
2013-08-15 20:11:00,80.7,50.5,29.76,NE,51,0.0,0.0,35,0.00,,---,0.00,VWS V14.00,2013-08-16 01:11:00,
2013-08-15 20:12:00,80.5,50.4,29.76,NE,51,0.0,0.0,35,0.00,,---,0.00,VWS V14.00,2013-08-16 01:12:00,
2013-08-15 20:13:00,80.3,50.9,29.74,NE,51,0.0,0.0,36,0.00,,---,0.00,VWS V14.00,2013-08-16 01:13:00,
2013-08-15 20:14:00,80.3,50.9,29.74,NE,51,0.0,0.0,36,0.00,,---,0.00,VWS V14.00,2013-08-16 01:14:00,
2013-08-15 20:17:00,80.1,50.8,29.74,NE,51,0.0,0.0,36,0.00,,---,0.00,VWS V14.00,2013-08-16 01:17:00,
2013-08-15 20:18:00,79.9,49.8,29.74,NE,51,0.0,0.0,35,0.00,,---,0.00,VWS V14.00,2013-08-16 01:18:00,
2013-08-15 20:19:00,79.9,49.8,29.74,NE,51,0.0,0.0,35,0.00,,---,0.00,VWS V14.00,2013-08-16 01:19:00,
2013-08-15 20:20:00,79.9,50.6,29.74,NE,51,0.0,0.0,36,0.00,,---,0.00,VWS V14.00,2013-08-16 01:20:00,
2013-08-15 20:22:00,79.8,50.5,29.74,NE,51,0.0,0.0,36,0.00,,---,0.00,VWS V14.00,2013-08-16 01:22:00,
2013-08-15 20:23:00,79.6,50.3,29.74,NE,51,0.0,0.0,36,0.00,,---,0.00,VWS V14.00,2013-08-16 01:23:00,
2013-08-15 20:24:00,79.6,50.3,29.74,NE,51,0.0,0.0,36,0.00,,---,0.00,VWS V14.00,2013-08-16 01:24:00,
2013-08-15 20:25:00,79.4,50.2,29.74,NE,51,0.0,0.0,36,0.00,,---,0.00,VWS V14.00,2013-08-16 01:25:00,
2013-08-15 20:27:00,79.2,50.0,29.74,NE,51,0.0,0.0,36,0.00,,---,0.00,VWS V14.00,2013-08-16 01:27:00,
2013-08-15 20:28:00,79.0,49.8,29.75,NE,51,0.0,0.0,36,0.00,,---,0.00,VWS V14.00,2013-08-16 01:28:00,
2013-08-15 20:29:00,79.0,50.5,29.75,NE,51,0.0,0.0,37,0.00,,---,0.00,VWS V14.00,2013-08-16 01:29:00,
2013-08-15 20:31:00,79.0,50.5,29.75,NE,51,0.0,0.0,37,0.00,,---,0.00,VWS V14.00,2013-08-16 01:31:00,
2013-08-15 20:33:00,78.8,50.4,29.75,NE,51,0.0,0.0,37,0.00,,---,0.00,VWS V14.00,2013-08-16 01:33:00,
2013-08-15 20:35:00,78.6,50.2,29.75,NE,51,0.0,0.0,37,0.00,,---,0.00,VWS V14.00,2013-08-16 01:35:00,
2013-08-15 20:36:00,78.5,50.8,29.75,NE,51,0.0,0.0,38,0.00,,---,0.00,VWS V14.00,2013-08-16 01:36:00,
2013-08-15 20:38:00,78.5,50.8,29.75,NE,51,0.0,0.0,38,0.00,,---,0.00,VWS V14.00,2013-08-16 01:38:00,
2013-08-15 20:40:00,78.3,50.6,29.75,NE,51,0.0,0.0,38,0.00,,---,0.00,VWS V14.00,2013-08-16 01:40:00,
2013-08-15 20:41:00,78.3,50.6,29.75,NE,51,0.0,0.0,38,0.00,,---,0.00,VWS V14.00,2013-08-16 01:41:00,
2013-08-15 20:42:00,78.3,50.6,29.75,NE,51,0.0,0.0,38,0.00,,---,0.00,VWS V14.00,2013-08-16 01:42:00,
2013-08-15 20:43:00,78.3,50.6,29.76,NE,51,0.0,0.0,38,0.00,,---,0.00,VWS V14.00,2013-08-16 01:43:00,
2013-08-15 20:46:00,78.1,50.5,29.76,NE,51,0.0,0.0,38,0.00,,---,0.00,VWS V14.00,2013-08-16 01:46:00,
2013-08-15 20:47:00,77.9,51.0,29.76,NE,51,0.0,0.0,39,0.00,,---,0.00,VWS V14.00,2013-08-16 01:47:00,
2013-08-15 20:48:00,77.9,51.0,29.76,NE,51,0.0,0.0,39,0.00,,---,0.00,VWS V14.00,2013-08-16 01:48:00,
2013-08-15 20:51:00,77.6,50.7,29.76,NE,51,0.0,0.0,39,0.00,,---,0.00,VWS V14.00,2013-08-16 01:51:00,
2013-08-15 20:52:00,77.6,50.7,29.76,NE,51,0.0,0.0,39,0.00,,---,0.00,VWS V14.00,2013-08-16 01:52:00,
2013-08-15 20:53:00,77.4,51.2,29.76,NE,51,0.0,0.0,40,0.00,,---,0.00,VWS V14.00,2013-08-16 01:53:00,
2013-08-15 20:54:00,77.4,51.2,29.76,NE,51,0.0,0.0,40,0.00,,---,0.00,VWS V14.00,2013-08-16 01:54:00,
2013-08-15 20:56:00,77.4,51.2,29.76,NE,51,0.0,0.0,40,0.00,,---,0.00,VWS V14.00,2013-08-16 01:56:00,
2013-08-15 20:57:00,77.2,51.0,29.76,NE,51,0.0,0.0,40,0.00,,---,0.00,VWS V14.00,2013-08-16 01:57:00,
2013-08-15 20:58:00,77.2,51.0,29.77,NE,51,0.0,0.0,40,0.00,,---,0.00,VWS V14.00,2013-08-16 01:58:00,
2013-08-15 20:59:00,77.2,51.0,29.77,NE,51,0.0,0.0,40,0.00,,---,0.00,VWS V14.00,2013-08-16 01:59:00,
2013-08-15 21:01:00,77.0,51.5,29.77,NE,51,0.0,0.0,41,0.00,,---,0.00,VWS V14.00,2013-08-16 02:01:00,
2013-08-15 21:02:00,77.0,51.5,29.77,NE,51,0.0,0.0,41,0.00,,---,0.00,VWS V14.00,2013-08-16 02:02:00,
2013-08-15 21:03:00,76.8,51.3,29.77,NE,51,0.0,0.0,41,0.00,,---,0.00,VWS V14.00,2013-08-16 02:03:00,
2013-08-15 21:04:00,76.8,51.3,29.77,NE,51,0.0,0.0,41,0.00,,---,0.00,VWS V14.00,2013-08-16 02:04:00,
2013-08-15 21:06:00,76.7,51.2,29.77,NE,51,0.0,0.0,41,0.00,,---,0.00,VWS V14.00,2013-08-16 02:06:00,
2013-08-15 21:07:00,76.7,51.2,29.77,NE,51,0.0,0.0,41,0.00,,---,0.00,VWS V14.00,2013-08-16 02:07:00,
2013-08-15 21:08:00,76.7,51.2,29.77,NE,51,0.0,0.0,41,0.00,,---,0.00,VWS V14.00,2013-08-16 02:08:00,
2013-08-15 21:09:00,76.7,51.2,29.77,NE,51,0.0,0.0,41,0.00,,---,0.00,VWS V14.00,2013-08-16 02:09:00,
2013-08-15 21:11:00,76.7,51.2,29.77,NE,51,0.0,0.0,41,0.00,,---,0.00,VWS V14.00,2013-08-16 02:11:00,
2013-08-15 21:12:00,76.7,51.2,29.77,NE,51,0.0,0.0,41,0.00,,---,0.00,VWS V14.00,2013-08-16 02:12:00,
2013-08-15 21:13:00,76.5,51.1,29.73,NE,51,0.0,0.0,41,0.00,,---,0.00,VWS V14.00,2013-08-16 02:13:00,
2013-08-15 21:14:00,76.5,51.1,29.73,NE,51,0.0,0.0,41,0.00,,---,0.00,VWS V14.00,2013-08-16 02:14:00,
2013-08-15 21:16:00,76.5,51.7,29.73,NE,51,0.0,0.0,42,0.00,,---,0.00,VWS V14.00,2013-08-16 02:16:00,
2013-08-15 21:17:00,76.3,51.5,29.73,NE,51,0.0,0.0,42,0.00,,---,0.00,VWS V14.00,2013-08-16 02:17:00,
2013-08-15 21:18:00,76.3,51.5,29.73,NE,51,0.0,0.0,42,0.00,,---,0.00,VWS V14.00,2013-08-16 02:18:00,
2013-08-15 21:19:00,76.3,50.9,29.73,NE,51,0.0,0.0,41,0.00,,---,0.00,VWS V14.00,2013-08-16 02:19:00,
2013-08-15 21:21:00,76.3,52.2,29.73,NE,51,0.0,0.0,43,0.00,,---,0.00,VWS V14.00,2013-08-16 02:21:00,
2013-08-15 21:22:00,76.3,51.5,29.73,NE,51,0.0,0.0,42,0.00,,---,0.00,VWS V14.00,2013-08-16 02:22:00,
2013-08-15 21:23:00,76.3,51.5,29.73,NE,51,0.0,0.0,42,0.00,,---,0.00,VWS V14.00,2013-08-16 02:23:00,
2013-08-15 21:24:00,76.3,50.9,29.73,NE,51,0.0,0.0,41,0.00,,---,0.00,VWS V14.00,2013-08-16 02:24:00,
2013-08-15 21:26:00,76.3,50.9,29.73,NE,51,0.0,0.0,41,0.00,,---,0.00,VWS V14.00,2013-08-16 02:26:00,
2013-08-15 21:28:00,76.3,50.9,29.73,NE,51,0.0,0.0,41,0.00,,---,0.00,VWS V14.00,2013-08-16 02:28:00,
2013-08-15 21:29:00,76.5,51.1,29.74,NE,51,0.0,0.0,41,0.00,,---,0.00,VWS V14.00,2013-08-16 02:29:00,
2013-08-15 21:32:00,76.7,51.9,29.74,NE,51,0.0,0.0,42,0.00,,---,0.00,VWS V14.00,2013-08-16 02:32:00,
2013-08-15 21:33:00,76.7,51.9,29.74,NE,51,0.0,0.0,42,0.00,,---,0.00,VWS V14.00,2013-08-16 02:33:00,
2013-08-15 21:54:00,76.0,52.5,29.75,NE,51,0.0,0.0,44,0.00,,---,0.00,VWS V14.00,2013-08-16 02:54:00,
2013-08-15 21:59:00,75.8,52.4,29.75,NE,51,0.0,0.0,44,0.00,,---,0.00,VWS V14.00,2013-08-16 02:59:00,
2013-08-15 22:00:00,75.6,52.2,29.75,NE,51,0.0,0.0,44,0.00,,---,0.00,VWS V14.00,2013-08-16 03:00:00,
2013-08-15 22:04:00,75.4,53.2,29.75,NE,51,0.0,0.0,46,0.00,,---,0.00,VWS V14.00,2013-08-16 03:04:00,
2013-08-15 22:05:00,75.4,53.2,29.75,NE,51,0.0,0.0,46,0.00,,---,0.00,VWS V14.00,2013-08-16 03:05:00,
2013-08-15 22:09:00,75.3,52.5,29.75,NE,51,0.0,0.0,45,0.00,,---,0.00,VWS V14.00,2013-08-16 03:09:00,
2013-08-15 22:10:00,75.1,52.3,29.75,NE,51,0.0,0.0,45,0.00,,---,0.00,VWS V14.00,2013-08-16 03:10:00,